createdAt,value
2018-11-28T00:00:24.661Z,98615.31
2018-11-28T00:02:53.339Z,98619.39
2018-11-28T00:05:22.001Z,98625.36
2018-11-28T00:07:50.645Z,98630.28
2018-11-28T00:10:19.264Z,98627.27
2018-11-28T00:12:47.987Z,98621.30
2018-11-28T00:15:16.807Z,98619.27
2018-11-28T00:17:45.480Z,98630.41
2018-11-28T00:20:15.196Z,98630.04
2018-11-28T00:22:44.230Z,98629.45
2018-11-28T00:25:13.622Z,98628.59
2018-11-28T00:27:42.402Z,98628.81
2018-11-28T00:30:19.344Z,98627.55
2018-11-28T00:32:48.010Z,98624.17
2018-11-28T00:35:17.592Z,98623.20
2018-11-28T00:37:46.280Z,98628.34
2018-11-28T00:40:15.966Z,98633.83
2018-11-28T00:42:44.635Z,98631.44
2018-11-28T00:45:15.116Z,98631.44
2018-11-28T00:47:43.775Z,98629.79
2018-11-28T00:50:13.400Z,98639.93
2018-11-28T00:52:42.079Z,98647.80
2018-11-28T00:55:12.631Z,98642.43
2018-11-28T00:57:41.408Z,98649.70
2018-11-28T01:00:15.115Z,98646.84
2018-11-28T01:02:43.834Z,98653.19
2018-11-28T01:05:13.025Z,98655.24
2018-11-28T01:07:42.298Z,98661.66
2018-11-28T01:10:15.776Z,98665.29
2018-11-28T01:12:44.478Z,98666.53
2018-11-28T01:15:14.035Z,98670.06
2018-11-28T01:17:42.687Z,98676.58
2018-11-28T01:20:12.425Z,98677.75
2018-11-28T01:22:41.141Z,98681.31
2018-11-28T01:25:11.525Z,98678.08
2018-11-28T01:27:40.233Z,98678.72
2018-11-28T01:30:11.971Z,98678.62
2018-11-28T01:32:40.785Z,98679.81
2018-11-28T01:35:12.293Z,98680.87
2018-11-28T01:37:41.175Z,98676.50
2018-11-28T01:40:12.034Z,98675.90
2018-11-28T01:42:40.737Z,98677.63
2018-11-28T01:45:10.724Z,98678.48
2018-11-28T01:47:39.384Z,98683.09
2018-11-28T01:50:10.441Z,98682.56
2018-11-28T01:52:39.147Z,98684.54
2018-11-28T01:55:09.199Z,98680.98
2018-11-28T01:57:37.839Z,98681.19
2018-11-28T02:00:24.973Z,98677.78
2018-11-28T02:02:55.009Z,98687.47
2018-11-28T02:05:23.707Z,98680.84
2018-11-28T02:07:52.446Z,98676.30
2018-11-28T02:10:21.084Z,98677.13
2018-11-28T02:12:49.756Z,98686.91
2018-11-28T02:15:20.315Z,98685.02
2018-11-28T02:17:49.008Z,98690.75
2018-11-28T02:20:18.166Z,98687.09
2018-11-28T02:22:47.063Z,98700.93
2018-11-28T02:25:17.425Z,98698.79
2018-11-28T02:27:46.680Z,98698.86
2018-11-28T02:30:16.294Z,98695.16
2018-11-28T02:32:45.302Z,98701.45
2018-11-28T02:35:14.797Z,98697.95
2018-11-28T02:37:43.554Z,98695.62
2018-11-28T02:40:14.081Z,98706.52
2018-11-28T02:42:42.766Z,98699.70
2018-11-28T02:45:16.396Z,98702.29
2018-11-28T02:47:45.116Z,98704.89
2018-11-28T02:50:13.801Z,98713.66
2018-11-28T02:52:42.453Z,98710.86
2018-11-28T02:55:12.027Z,98706.11
2018-11-28T02:57:41.119Z,98705.87
2018-11-28T03:00:18.118Z,98704.25
2018-11-28T03:02:46.768Z,98706.29
2018-11-28T03:05:15.537Z,98704.64
2018-11-28T03:07:44.208Z,98710.00
2018-11-28T03:10:14.939Z,98709.19
2018-11-28T03:12:43.635Z,98702.97
2018-11-28T03:15:15.446Z,98708.88
2018-11-28T03:17:44.135Z,98702.92
2018-11-28T03:20:12.876Z,98705.58
2018-11-28T03:22:41.603Z,98701.50
2018-11-28T03:25:11.376Z,98703.59
2018-11-28T03:27:40.029Z,98701.17
2018-11-28T03:30:12.787Z,98710.63
2018-11-28T03:32:41.542Z,98704.54
2018-11-28T03:35:11.736Z,98712.14
2018-11-28T03:37:40.436Z,98711.30
2018-11-28T03:40:09.239Z,98710.00
2018-11-28T03:42:37.872Z,98710.44
2018-11-28T03:45:09.281Z,98718.80
2018-11-28T03:47:37.918Z,98712.53
2018-11-28T03:50:07.970Z,98710.70
2018-11-28T03:52:36.723Z,98708.72
2018-11-28T03:55:06.888Z,98703.15
2018-11-28T03:57:35.503Z,98700.95
2018-11-28T04:00:05.588Z,98701.97
2018-11-28T04:02:34.256Z,98707.73
2018-11-28T04:05:02.920Z,98706.83
2018-11-28T04:07:31.528Z,98716.62
2018-11-28T04:10:00.176Z,98716.16
2018-11-28T04:12:28.787Z,98711.82
2018-11-28T04:14:57.547Z,98718.48
2018-11-28T04:17:26.167Z,98710.54
2018-11-28T04:19:54.800Z,98710.88
2018-11-28T04:22:23.431Z,98706.02
2018-11-28T04:24:52.067Z,98707.92
2018-11-28T04:27:20.683Z,98710.41
2018-11-28T04:29:49.353Z,98709.26
2018-11-28T04:32:18.091Z,98715.25
2018-11-28T04:34:46.819Z,98716.87
2018-11-28T04:37:15.939Z,98717.35
2018-11-28T04:39:44.584Z,98714.09
2018-11-28T04:42:13.209Z,98714.06
2018-11-28T04:44:41.848Z,98714.15
2018-11-28T04:47:10.455Z,98711.53
2018-11-28T04:49:39.116Z,98710.39
2018-11-28T04:52:07.725Z,98713.20
2018-11-28T04:54:36.380Z,98703.20
2018-11-28T04:57:05.089Z,98705.53
2018-11-28T04:59:33.741Z,98708.19
2018-11-28T05:02:02.359Z,98716.66
2018-11-28T05:04:30.992Z,98721.70
2018-11-28T05:07:30.484Z,98721.91
2018-11-28T05:09:59.549Z,98730.41
2018-11-28T05:12:28.252Z,98724.12
2018-11-28T05:14:56.975Z,98726.34
2018-11-28T05:17:25.608Z,98732.52
2018-11-28T05:19:54.239Z,98732.36
2018-11-28T05:22:22.855Z,98734.50
2018-11-28T05:24:51.523Z,98743.55
2018-11-28T05:27:20.167Z,98739.49
2018-11-28T05:29:48.892Z,98734.05
2018-11-28T05:32:17.527Z,98733.18
2018-11-28T05:34:47.411Z,98741.23
2018-11-28T05:37:16.056Z,98741.72
2018-11-28T05:39:44.680Z,98732.48
2018-11-28T05:42:13.376Z,98731.20
2018-11-28T05:44:42.222Z,98736.27
2018-11-28T05:47:10.845Z,98727.97
2018-11-28T05:49:39.555Z,98728.55
2018-11-28T05:52:08.209Z,98732.30
2018-11-28T05:54:36.866Z,98738.28
2018-11-28T05:57:05.891Z,98738.06
2018-11-28T05:59:34.560Z,98743.81
2018-11-28T06:02:03.216Z,98747.91
2018-11-28T06:04:31.872Z,98756.26
2018-11-28T06:07:01.965Z,98755.21
2018-11-28T06:09:30.703Z,98754.83
2018-11-28T06:11:59.329Z,98756.87
2018-11-28T06:14:27.983Z,98756.73
2018-11-28T06:16:56.648Z,98753.39
2018-11-28T06:19:25.664Z,98757.11
2018-11-28T06:21:54.366Z,98749.69
2018-11-28T06:24:22.996Z,98748.77
2018-11-28T06:26:51.636Z,98759.53
2018-11-28T06:29:20.396Z,98760.53
2018-11-28T06:31:49.033Z,98764.92
2018-11-28T06:34:17.660Z,98768.53
2018-11-28T06:36:46.570Z,98761.78
2018-11-28T06:39:15.199Z,98764.68
2018-11-28T06:41:43.819Z,98770.11
2018-11-28T06:44:12.510Z,98769.47
2018-11-28T06:46:41.156Z,98772.71
2018-11-28T06:49:10.204Z,98769.42
2018-11-28T06:51:38.897Z,98766.41
2018-11-28T06:54:07.557Z,98775.55
2018-11-28T06:56:36.259Z,98775.73
2018-11-28T06:59:05.373Z,98781.52
2018-11-28T07:01:34.032Z,98791.70
2018-11-28T07:04:02.792Z,98795.77
2018-11-28T07:06:31.523Z,98802.56
2018-11-28T07:09:00.252Z,98806.94
2018-11-28T07:11:28.972Z,98812.49
2018-11-28T07:13:57.651Z,98808.73
2018-11-28T07:16:27.126Z,98815.23
2018-11-28T07:19:07.257Z,98818.31
2018-11-28T07:21:36.256Z,98821.58
2018-11-28T07:24:05.414Z,98827.29
2018-11-28T07:26:34.139Z,98827.66
2018-11-28T07:29:02.907Z,98832.61
2018-11-28T07:31:31.552Z,98839.62
2018-11-28T07:34:00.228Z,98835.94
2018-11-28T07:36:28.926Z,98836.90
2018-11-28T07:38:57.562Z,98841.02
2018-11-28T07:41:26.779Z,98840.73
2018-11-28T07:43:55.425Z,98840.35
2018-11-28T07:46:24.075Z,98838.99
2018-11-28T07:48:52.791Z,98848.29
2018-11-28T07:51:21.428Z,98840.03
2018-11-28T07:53:50.664Z,98846.23
2018-11-28T07:56:19.314Z,98844.11
2018-11-28T07:58:54.395Z,98849.59
2018-11-28T08:01:23.048Z,98846.09
2018-11-28T08:03:51.910Z,98847.05
2018-11-28T08:06:20.736Z,98846.95
2018-11-28T08:08:49.515Z,98845.67
2018-11-28T08:11:18.229Z,98851.49
2018-11-28T08:13:46.960Z,98850.55
2018-11-28T08:16:16.125Z,98854.92
2018-11-28T08:18:45.591Z,98853.83
2018-11-28T08:21:14.384Z,98850.95
2018-11-28T08:23:43.052Z,98849.62
2018-11-28T08:26:11.769Z,98846.66
2018-11-28T08:28:40.424Z,98849.20
2018-11-28T08:31:09.979Z,98853.62
2018-11-28T08:33:37.820Z,98855.34
2018-11-28T08:36:06.815Z,98854.16
2018-11-28T08:38:35.540Z,98854.69
2018-11-28T08:41:04.274Z,98857.06
2018-11-28T08:43:32.935Z,98867.44
2018-11-28T08:46:01.556Z,98868.97
2018-11-28T08:48:30.277Z,98865.50
2018-11-28T08:50:58.891Z,98869.41
2018-11-28T08:53:27.556Z,98866.52
2018-11-28T08:55:56.200Z,98865.28
2018-11-28T08:58:24.848Z,98865.86
2018-11-28T09:00:53.504Z,98870.98
2018-11-28T09:03:22.132Z,98867.50
2018-11-28T09:05:50.748Z,98878.34
2018-11-28T09:08:19.460Z,98880.95
2018-11-28T09:10:48.114Z,98879.41
2018-11-28T09:13:16.875Z,98884.84
2018-11-28T09:15:45.516Z,98879.06
2018-11-28T09:18:14.193Z,98880.83
2018-11-28T09:20:42.820Z,98887.55
2018-11-28T09:23:11.448Z,98884.88
2018-11-28T09:25:40.104Z,98886.11
2018-11-28T09:28:08.745Z,98889.06
2018-11-28T09:30:37.372Z,98901.86
2018-11-28T09:33:06.588Z,98895.89
2018-11-28T09:35:35.228Z,98891.91
2018-11-28T09:38:04.228Z,98887.39
2018-11-28T09:40:32.871Z,98890.28
2018-11-28T09:43:01.500Z,98881.91
2018-11-28T09:45:30.162Z,98885.66
2018-11-28T09:47:58.795Z,98883.72
2018-11-28T09:50:27.620Z,98886.48
2018-11-28T09:52:56.596Z,98875.14
2018-11-28T09:55:27.032Z,98881.41
2018-11-28T09:57:55.928Z,98880.73
2018-11-28T10:00:26.496Z,98879.31
2018-11-28T10:02:58.040Z,98871.50
2018-11-28T10:05:32.486Z,98873.23
2018-11-28T10:08:01.323Z,98867.70
2018-11-28T10:10:29.994Z,98861.53
2018-11-28T10:12:58.724Z,98860.42
2018-11-28T10:15:28.272Z,98862.83
2018-11-28T10:17:56.979Z,98856.39
2018-11-28T10:20:25.669Z,98868.50
2018-11-28T10:22:54.397Z,98861.80
2018-11-28T10:25:26.751Z,98856.49
2018-11-28T10:27:59.712Z,98861.38
2018-11-28T10:30:29.602Z,98856.25
2018-11-28T10:32:58.308Z,98857.27
2018-11-28T10:35:27.002Z,98853.55
2018-11-28T10:37:55.708Z,98840.55
2018-11-28T10:40:24.903Z,98835.63
2018-11-28T10:42:55.652Z,98834.14
2018-11-28T10:45:25.112Z,98831.12
2018-11-28T10:47:53.808Z,98834.05
2018-11-28T10:50:22.502Z,98828.64
2018-11-28T10:52:51.241Z,98829.91
2018-11-28T10:55:20.770Z,98840.32
2018-11-28T10:57:49.548Z,98829.47
2018-11-28T11:00:26.119Z,98833.45
2018-11-28T11:02:59.858Z,98823.30
2018-11-28T11:05:33.536Z,98815.72
2018-11-28T11:08:07.307Z,98811.03
2018-11-28T11:10:41.042Z,98806.48
2018-11-28T11:13:16.416Z,98816.48
2018-11-28T11:15:49.315Z,98816.77
2018-11-28T11:18:17.987Z,98814.36
2018-11-28T11:20:46.615Z,98822.67
2018-11-28T11:23:15.348Z,98812.90
2018-11-28T11:25:44.075Z,98813.18
2018-11-28T11:28:12.723Z,98821.72
2018-11-28T11:30:41.523Z,98812.36
2018-11-28T11:33:10.176Z,98819.06
2018-11-28T11:35:38.881Z,98812.21
2018-11-28T11:38:07.548Z,98819.05
2018-11-28T11:40:36.227Z,98811.63
2018-11-28T11:43:05.189Z,98808.91
2018-11-28T11:45:33.923Z,98811.69
2018-11-28T11:48:02.572Z,98805.50
2018-11-28T11:50:31.255Z,98805.19
2018-11-28T11:52:59.904Z,98800.05
2018-11-28T11:55:28.576Z,98802.02
2018-11-28T11:57:57.455Z,98810.03
2018-11-28T12:00:26.719Z,98797.19
2018-11-28T12:03:00.921Z,98807.58
2018-11-28T12:05:29.611Z,98800.75
2018-11-28T12:07:58.239Z,98801.28
2018-11-28T12:10:26.896Z,98811.39
2018-11-28T12:12:55.638Z,98801.45
2018-11-28T12:15:24.323Z,98804.87
2018-11-28T12:17:52.996Z,98798.82
2018-11-28T12:20:28.091Z,98800.17
2018-11-28T12:22:56.710Z,98799.23
2018-11-28T12:25:25.397Z,98801.73
2018-11-28T12:27:54.031Z,98805.13
2018-11-28T12:30:22.754Z,98802.98
2018-11-28T12:32:51.379Z,98807.91
2018-11-28T12:35:20.381Z,98804.85
2018-11-28T12:37:48.983Z,98802.77
2018-11-28T12:40:17.873Z,98797.09
2018-11-28T12:42:48.236Z,98782.83
2018-11-28T12:45:17.771Z,98785.86
2018-11-28T12:47:47.036Z,98786.16
2018-11-28T12:50:23.473Z,98791.17
2018-11-28T12:52:52.854Z,98802.13
2018-11-28T12:55:21.919Z,98800.31
2018-11-28T12:57:51.211Z,98797.44
2018-11-28T13:00:21.820Z,98790.33
2018-11-28T13:02:50.732Z,98794.80
2018-11-28T13:05:21.642Z,98796.97
2018-11-28T13:07:50.319Z,98800.45
2018-11-28T13:10:21.064Z,98787.56
2018-11-28T13:12:50.505Z,98796.98
2018-11-28T13:15:20.175Z,98794.56
2018-11-28T13:17:48.964Z,98798.83
2018-11-28T13:20:18.504Z,98801.11
2018-11-28T13:22:48.087Z,98806.62
2018-11-28T13:25:19.786Z,98803.85
2018-11-28T13:27:48.485Z,98808.03
2018-11-28T13:30:19.718Z,98804.99
2018-11-28T13:32:48.912Z,98802.79
2018-11-28T13:35:21.437Z,98803.47
2018-11-28T13:37:51.038Z,98806.54
2018-11-28T13:40:20.592Z,98807.65
2018-11-28T13:42:49.628Z,98807.45
2018-11-28T13:45:22.400Z,98806.86
2018-11-28T13:47:52.920Z,98811.56
2018-11-28T13:50:21.596Z,98814.84
2018-11-28T13:52:50.662Z,98813.81
2018-11-28T13:55:42.917Z,98814.89
2018-11-28T13:57:52.549Z,98814.48
2018-11-28T14:00:21.372Z,98816.50
2018-11-28T14:02:50.075Z,98820.23
2018-11-28T14:05:18.751Z,98823.38
2018-11-28T14:07:47.522Z,98821.70
2018-11-28T14:10:16.432Z,98822.89
2018-11-28T14:12:45.403Z,98817.17
2018-11-28T14:15:20.006Z,98823.69
2018-11-28T14:17:52.014Z,98822.50
2018-11-28T14:20:20.676Z,98818.95
2018-11-28T14:22:49.317Z,98816.74
2018-11-28T14:25:18.033Z,98823.79
2018-11-28T14:27:46.668Z,98826.05
2018-11-28T14:30:20.064Z,98827.45
2018-11-28T14:32:48.834Z,98823.09
2018-11-28T14:35:17.764Z,98829.34
2018-11-28T14:37:46.527Z,98827.66
2018-11-28T14:40:16.252Z,98836.55
2018-11-28T14:42:45.928Z,98832.94
2018-11-28T14:45:15.614Z,98837.13
2018-11-28T14:47:44.555Z,98847.98
2018-11-28T14:50:15.544Z,98849.64
2018-11-28T14:52:45.066Z,98844.39
2018-11-28T14:55:15.060Z,98849.73
2018-11-28T14:57:43.770Z,98850.33
2018-11-28T15:00:21.925Z,98853.58
2018-11-28T15:02:53.608Z,98853.78
2018-11-28T15:06:27.213Z,98860.58
2018-11-28T15:09:01.168Z,98862.51
2018-11-28T15:11:29.822Z,98870.30
2018-11-28T15:13:58.471Z,98860.06
2018-11-28T15:16:27.115Z,98866.73
2018-11-28T15:18:55.832Z,98865.83
2018-11-28T15:21:24.449Z,98869.20
2018-11-28T15:23:53.135Z,98870.16
2018-11-28T15:26:21.778Z,98871.53
2018-11-28T15:28:50.686Z,98878.68
2018-11-28T15:31:19.408Z,98881.16
2018-11-28T15:33:48.054Z,98876.36
2018-11-28T15:36:17.785Z,98876.44
2018-11-28T15:38:46.432Z,98867.63
2018-11-28T15:41:15.221Z,98870.69
2018-11-28T15:43:44.028Z,98868.11
2018-11-28T15:46:15.052Z,98861.44
2018-11-28T15:48:41.388Z,98860.68
2018-11-28T15:51:10.028Z,98864.63
2018-11-28T15:53:38.779Z,98859.06
2018-11-28T15:56:07.621Z,98858.08
2018-11-28T15:58:36.479Z,98866.85
2018-11-28T16:01:05.263Z,98872.84
2018-11-28T16:03:34.028Z,98870.94
2018-11-28T16:06:02.963Z,98875.45
2018-11-28T16:08:31.687Z,98868.67
2018-11-28T16:11:00.442Z,98871.42
2018-11-28T16:13:29.215Z,98873.23
2018-11-28T16:15:58.839Z,98878.00
2018-11-28T16:18:27.599Z,98886.05
2018-11-28T16:20:56.392Z,98892.08
2018-11-28T16:23:25.155Z,98890.05
2018-11-28T16:25:54.168Z,98894.38
2018-11-28T16:28:22.902Z,98892.16
2018-11-28T16:30:55.697Z,98891.06
2018-11-28T16:33:24.795Z,98900.22
2018-11-28T16:35:54.142Z,98900.90
2018-11-28T16:38:22.943Z,98902.23
2018-11-28T16:40:51.791Z,98892.53
2018-11-28T16:43:20.558Z,98895.58
2018-11-28T16:45:49.364Z,98895.42
2018-11-28T16:48:18.119Z,98904.67
2018-11-28T16:50:46.913Z,98899.55
2018-11-28T16:53:15.655Z,98905.45
2018-11-28T16:55:44.404Z,98902.37
2018-11-28T16:58:13.162Z,98898.38
2018-11-28T17:00:43.676Z,98890.97
2018-11-28T17:03:12.463Z,98896.30
2018-11-28T17:05:41.275Z,98890.21
2018-11-28T17:08:10.508Z,98884.91
2018-11-28T17:10:39.233Z,98896.87
2018-11-28T17:13:08.073Z,98908.26
2018-11-28T17:15:37.108Z,98911.32
2018-11-28T17:18:06.531Z,98908.35
2018-11-28T17:20:35.955Z,98906.45
2018-11-28T17:23:05.637Z,98900.53
2018-11-28T17:25:34.327Z,98898.71
2018-11-28T17:28:03.903Z,98910.78
2018-11-28T17:30:33.497Z,98908.84
2018-11-28T17:33:04.110Z,98906.61
2018-11-28T17:35:32.919Z,98908.41
2018-11-28T17:38:01.689Z,98909.50
2018-11-28T17:40:30.528Z,98903.58
2018-11-28T17:43:00.033Z,98903.65
2018-11-28T17:45:29.394Z,98902.72
2018-11-28T17:47:58.144Z,98906.27
2018-11-28T17:50:27.371Z,98911.64
2018-11-28T17:53:02.327Z,98903.58
2018-11-28T17:55:33.377Z,98905.44
2018-11-28T17:58:02.155Z,98911.27
2018-11-28T18:00:30.945Z,98918.66
2018-11-28T18:02:59.672Z,98906.88
2018-11-28T18:05:28.360Z,98904.80
2018-11-28T18:07:57.093Z,98903.79
2018-11-28T18:10:25.807Z,98919.30
2018-11-28T18:13:06.148Z,98923.20
2018-11-28T18:15:35.356Z,98912.88
2018-11-28T18:18:04.347Z,98911.58
2018-11-28T18:20:33.104Z,98909.70
2018-11-28T18:23:02.578Z,98914.48
2018-11-28T18:25:32.303Z,98912.61
2018-11-28T18:28:01.316Z,98905.81
2018-11-28T18:30:30.017Z,98896.23
2018-11-28T18:32:58.788Z,98894.84
2018-11-28T18:35:27.551Z,98889.75
2018-11-28T18:37:56.293Z,98889.39
2018-11-28T18:40:25.003Z,98886.27
2018-11-28T18:42:53.749Z,98880.19
2018-11-28T18:45:23.877Z,98881.29
2018-11-28T18:47:52.587Z,98869.38
2018-11-28T18:50:21.479Z,98872.30
2018-11-28T18:52:50.704Z,98873.91
2018-11-28T18:55:21.656Z,98870.95
2018-11-28T18:57:54.855Z,98882.05
2018-11-28T19:00:24.716Z,98877.17
2018-11-28T19:02:53.904Z,98887.98
2018-11-28T19:05:22.595Z,98889.52
2018-11-28T19:07:51.447Z,98889.47
2018-11-28T19:10:26.039Z,98895.78
2018-11-28T19:12:49.957Z,98895.55
2018-11-28T19:15:19.937Z,98886.14
2018-11-28T19:17:49.139Z,98894.82
2018-11-28T19:20:18.899Z,98896.19
2018-11-28T19:22:48.338Z,98890.41
2018-11-28T19:25:22.072Z,98892.30
2018-11-28T19:27:50.879Z,98901.65
2018-11-28T19:30:32.044Z,98905.24
2018-11-28T19:33:00.803Z,98907.39
2018-11-28T19:35:29.718Z,98904.98
2018-11-28T19:37:58.492Z,98896.16
2018-11-28T19:40:34.305Z,98911.37
2018-11-28T19:43:03.094Z,98929.03
2018-11-28T19:45:31.800Z,98930.66
2018-11-28T19:48:00.535Z,98925.97
2018-11-28T19:50:30.964Z,98920.20
2018-11-28T19:52:59.737Z,98929.17
2018-11-28T19:55:28.436Z,98945.02
2018-11-28T19:57:57.244Z,98944.01
2018-11-28T20:00:26.339Z,98940.06
2018-11-28T20:02:55.087Z,98946.17
2018-11-28T20:05:23.851Z,98943.17
2018-11-28T20:07:52.605Z,98936.91
2018-11-28T20:10:22.279Z,98923.89
2018-11-28T20:12:51.199Z,98915.62
2018-11-28T20:15:24.175Z,98909.53
2018-11-28T20:17:52.964Z,98905.59
2018-11-28T20:20:21.877Z,98911.92
2018-11-28T20:22:50.724Z,98914.87
2018-11-28T20:25:21.317Z,98903.56
2018-11-28T20:27:53.336Z,98900.38
2018-11-28T20:30:25.722Z,98903.64
2018-11-28T20:32:54.458Z,98906.92
2018-11-28T20:35:23.177Z,98905.84
2018-11-28T20:37:51.998Z,98902.37
2018-11-28T20:40:20.731Z,98908.17
2018-11-28T20:42:50.689Z,98907.86
2018-11-28T20:45:19.456Z,98910.30
2018-11-28T20:47:48.259Z,98913.02
2018-11-28T20:50:21.428Z,98912.02
2018-11-28T20:52:54.948Z,98904.53
2018-11-28T20:55:20.645Z,98901.06
2018-11-28T20:57:49.380Z,98901.75
2018-11-28T21:00:19.529Z,98894.30
2018-11-28T21:02:48.321Z,98893.95
2018-11-28T21:05:17.117Z,98901.65
2018-11-28T21:07:45.860Z,98907.12
2018-11-28T21:10:20.612Z,98917.04
2018-11-28T21:12:49.311Z,98910.86
2018-11-28T21:15:18.018Z,98914.80
2018-11-28T21:17:47.172Z,98906.80
2018-11-28T21:20:20.001Z,98903.89
2018-11-28T21:22:50.980Z,98901.23
2018-11-28T21:25:19.716Z,98903.18
2018-11-28T21:27:48.430Z,98901.75
2018-11-28T21:30:18.175Z,98911.91
2018-11-28T21:32:46.943Z,98914.92
2018-11-28T21:35:25.461Z,98919.16
2018-11-28T21:37:54.199Z,98914.84
2018-11-28T21:40:22.939Z,98907.91
2018-11-28T21:42:58.268Z,98895.30
2018-11-28T21:45:27.184Z,98884.73
2018-11-28T21:47:55.922Z,98879.41
2018-11-28T21:50:24.648Z,98888.20
2018-11-28T21:52:53.367Z,98881.78
2018-11-28T21:55:23.989Z,98877.03
2018-11-28T21:57:52.818Z,98882.13
2018-11-28T22:00:23.440Z,98894.84
2018-11-28T22:02:52.227Z,98895.81
2018-11-28T22:05:21.097Z,98884.03
2018-11-28T22:07:49.865Z,98889.80
2018-11-28T22:10:22.326Z,98894.34
2018-11-28T22:12:51.110Z,98894.16
2018-11-28T22:15:19.971Z,98903.33
2018-11-28T22:17:53.308Z,98893.45
2018-11-28T22:20:22.174Z,98880.66
2018-11-28T22:22:50.876Z,98882.93
2018-11-28T22:25:21.475Z,98869.84
2018-11-28T22:27:50.251Z,98873.98
2018-11-28T22:30:19.979Z,98866.47
2018-11-28T22:32:48.739Z,98854.95
2018-11-28T22:35:17.455Z,98847.22
2018-11-28T22:37:46.203Z,98840.21
2018-11-28T22:40:17.894Z,98834.77
2018-11-28T22:42:46.599Z,98828.89
2018-11-28T22:45:19.435Z,98826.58
2018-11-28T22:47:48.187Z,98832.08
2018-11-28T22:50:16.916Z,98833.05
2018-11-28T22:52:45.680Z,98825.84
2018-11-28T22:55:16.019Z,98827.78
2018-11-28T22:57:44.808Z,98827.88
2018-11-28T23:00:27.923Z,98840.85
2018-11-28T23:03:00.048Z,98835.41
2018-11-28T23:05:29.762Z,98832.44
2018-11-28T23:07:59.518Z,98818.23
2018-11-28T23:10:28.252Z,98817.39
2018-11-28T23:12:57.005Z,98818.03
2018-11-28T23:15:25.812Z,98822.59
2018-11-28T23:17:55.465Z,98817.29
2018-11-28T23:20:23.359Z,98826.42
2018-11-28T23:22:52.132Z,98825.55
2018-11-28T23:25:20.892Z,98825.77
2018-11-28T23:27:49.767Z,98828.80
2018-11-28T23:30:22.188Z,98834.69
2018-11-28T23:32:51.630Z,98838.09
2018-11-28T23:35:20.373Z,98827.56
2018-11-28T23:37:49.655Z,98817.38
2018-11-28T23:40:21.217Z,98819.34
2018-11-28T23:42:50.161Z,98822.48
2018-11-28T23:45:18.904Z,98822.94
2018-11-28T23:47:47.720Z,98814.47
2018-11-28T23:50:20.186Z,98811.30
2018-11-28T23:52:49.327Z,98803.05
2018-11-28T23:55:22.591Z,98803.33
2018-11-28T23:57:51.435Z,98806.86
